sensor_id;sensor_type;location;lat;lon;timestamp;temperature;humidity
68098;DHT22;54886;47.036;15.466;2023-05-10T00:00:36;10.81;74.28
68098;DHT22;54886;47.036;15.466;2023-05-10T00:03:02;10.81;74.23
68098;DHT22;54886;47.036;15.466;2023-05-10T00:05:30;10.77;74.10
68098;DHT22;54886;47.036;15.466;2023-05-10T00:07:56;10.62;74.79
68098;DHT22;54886;47.036;15.466;2023-05-10T00:10:21;10.53;74.72
68098;DHT22;54886;47.036;15.466;2023-05-10T00:12:46;10.52;74.68
68098;DHT22;54886;47.036;15.466;2023-05-10T00:15:12;10.37;75.33
68098;DHT22;54886;47.036;15.466;2023-05-10T00:17:37;10.41;74.86
68098;DHT22;54886;47.036;15.466;2023-05-10T00:20:03;10.34;75.24
68098;DHT22;54886;47.036;15.466;2023-05-10T00:22:30;10.34;75.16
68098;DHT22;54886;47.036;15.466;2023-05-10T00:24:55;10.25;75.13
68098;DHT22;54886;47.036;15.466;2023-05-10T00:27:21;10.28;74.75
68098;DHT22;54886;47.036;15.466;2023-05-10T00:29:46;10.31;74.76
68098;DHT22;54886;47.036;15.466;2023-05-10T00:32:11;10.37;74.32
68098;DHT22;54886;47.036;15.466;2023-05-10T00:34:39;10.22;75.26
68098;DHT22;54886;47.036;15.466;2023-05-10T00:37:04;10.14;75.16
68098;DHT22;54886;47.036;15.466;2023-05-10T00:39:30;10.08;75.34
68098;DHT22;54886;47.036;15.466;2023-05-10T00:41:56;10.07;75.15
68098;DHT22;54886;47.036;15.466;2023-05-10T00:44:21;10.10;75.26
68098;DHT22;54886;47.036;15.466;2023-05-10T00:46:47;10.00;75.32
68098;DHT22;54886;47.036;15.466;2023-05-10T00:49:13;9.89;75.54
68098;DHT22;54886;47.036;15.466;2023-05-10T00:51:38;9.94;75.32
68098;DHT22;54886;47.036;15.466;2023-05-10T00:54:04;9.87;75.55
68098;DHT22;54886;47.036;15.466;2023-05-10T00:56:30;9.83;75.67
68098;DHT22;54886;47.036;15.466;2023-05-10T00:58:56;9.85;75.36
68098;DHT22;54886;47.036;15.466;2023-05-10T01:01:22;9.76;75.72
68098;DHT22;54886;47.036;15.466;2023-05-10T01:03:48;9.76;75.65
68098;DHT22;54886;47.036;15.466;2023-05-10T01:06:13;9.66;76.15
68098;DHT22;54886;47.036;15.466;2023-05-10T01:08:39;9.65;75.58
68098;DHT22;54886;47.036;15.466;2023-05-10T01:11:05;9.62;75.90
68098;DHT22;54886;47.036;15.466;2023-05-10T01:13:36;9.45;76.35
68098;DHT22;54886;47.036;15.466;2023-05-10T01:16:03;9.49;76.00
68098;DHT22;54886;47.036;15.466;2023-05-10T01:18:33;9.58;75.48
68098;DHT22;54886;47.036;15.466;2023-05-10T01:29:02;9.41;76.25
68098;DHT22;54886;47.036;15.466;2023-05-10T01:32:19;9.35;76.55
68098;DHT22;54886;47.036;15.466;2023-05-10T01:34:34;9.25;76.45
68098;DHT22;54886;47.036;15.466;2023-05-10T01:37:09;9.31;76.06
68098;DHT22;54886;47.036;15.466;2023-05-10T01:39:49;9.27;75.57
68098;DHT22;54886;47.036;15.466;2023-05-10T01:42:21;9.27;76.16
68098;DHT22;54886;47.036;15.466;2023-05-10T01:45:00;9.21;76.08
68098;DHT22;54886;47.036;15.466;2023-05-10T01:47:43;9.23;75.63
68098;DHT22;54886;47.036;15.466;2023-05-10T01:50:14;9.27;74.99
68098;DHT22;54886;47.036;15.466;2023-05-10T01:52:44;9.21;75.96
68098;DHT22;54886;47.036;15.466;2023-05-10T01:55:15;9.15;76.13
68098;DHT22;54886;47.036;15.466;2023-05-10T01:57:44;9.15;76.07
68098;DHT22;54886;47.036;15.466;2023-05-10T02:00:10;9.10;76.56
68098;DHT22;54886;47.036;15.466;2023-05-10T02:02:39;9.07;76.38
68098;DHT22;54886;47.036;15.466;2023-05-10T02:05:08;9.10;76.27
68098;DHT22;54886;47.036;15.466;2023-05-10T02:07:35;9.00;76.71
68098;DHT22;54886;47.036;15.466;2023-05-10T02:10:02;8.99;76.01
68098;DHT22;54886;47.036;15.466;2023-05-10T02:12:29;8.99;75.90
68098;DHT22;54886;47.036;15.466;2023-05-10T02:14:56;8.84;76.78
68098;DHT22;54886;47.036;15.466;2023-05-10T02:17:23;8.83;76.51
68098;DHT22;54886;47.036;15.466;2023-05-10T02:19:51;8.83;76.75
68098;DHT22;54886;47.036;15.466;2023-05-10T02:22:18;8.81;76.40
68098;DHT22;54886;47.036;15.466;2023-05-10T02:24:45;8.76;76.60
68098;DHT22;54886;47.036;15.466;2023-05-10T02:27:12;8.69;76.47
68098;DHT22;54886;47.036;15.466;2023-05-10T02:29:38;8.77;75.66
68098;DHT22;54886;47.036;15.466;2023-05-10T02:32:04;8.68;76.62
68098;DHT22;54886;47.036;15.466;2023-05-10T02:34:31;8.65;76.48
68098;DHT22;54886;47.036;15.466;2023-05-10T02:36:57;8.63;76.58
68098;DHT22;54886;47.036;15.466;2023-05-10T02:39:24;8.68;76.24
68098;DHT22;54886;47.036;15.466;2023-05-10T02:41:52;8.53;76.82
68098;DHT22;54886;47.036;15.466;2023-05-10T02:44:19;8.72;75.37
68098;DHT22;54886;47.036;15.466;2023-05-10T02:46:46;8.56;76.93
68098;DHT22;54886;47.036;15.466;2023-05-10T02:49:13;8.73;75.09
68098;DHT22;54886;47.036;15.466;2023-05-10T02:51:41;8.65;76.60
68098;DHT22;54886;47.036;15.466;2023-05-10T02:54:18;8.65;76.12
68098;DHT22;54886;47.036;15.466;2023-05-10T02:56:47;8.53;76.67
68098;DHT22;54886;47.036;15.466;2023-05-10T02:59:15;8.51;76.51
68098;DHT22;54886;47.036;15.466;2023-05-10T03:01:41;8.48;76.88
68098;DHT22;54886;47.036;15.466;2023-05-10T03:04:06;8.48;76.66
68098;DHT22;54886;47.036;15.466;2023-05-10T03:06:32;8.45;77.17
68098;DHT22;54886;47.036;15.466;2023-05-10T03:08:58;8.38;77.54
68098;DHT22;54886;47.036;15.466;2023-05-10T03:16:37;8.42;75.73
68098;DHT22;54886;47.036;15.466;2023-05-10T03:19:06;8.34;77.21
68098;DHT22;54886;47.036;15.466;2023-05-10T03:21:37;8.32;77.14
68098;DHT22;54886;47.036;15.466;2023-05-10T03:24:05;8.30;77.26
68098;DHT22;54886;47.036;15.466;2023-05-10T03:26:32;8.21;77.49
68098;DHT22;54886;47.036;15.466;2023-05-10T03:28:58;8.13;77.90
68098;DHT22;54886;47.036;15.466;2023-05-10T03:31:24;8.11;77.84
68098;DHT22;54886;47.036;15.466;2023-05-10T03:33:51;8.00;78.20
68098;DHT22;54886;47.036;15.466;2023-05-10T03:36:17;8.10;76.73
68098;DHT22;54886;47.036;15.466;2023-05-10T03:38:43;8.10;77.76
68098;DHT22;54886;47.036;15.466;2023-05-10T03:41:08;8.23;75.84
68098;DHT22;54886;47.036;15.466;2023-05-10T03:43:34;8.23;77.51
68098;DHT22;54886;47.036;15.466;2023-05-10T03:46:04;8.18;76.63
68098;DHT22;54886;47.036;15.466;2023-05-10T03:48:31;8.24;76.05
68098;DHT22;54886;47.036;15.466;2023-05-10T03:50:57;8.24;77.21
68098;DHT22;54886;47.036;15.466;2023-05-10T03:53:22;8.83;75.90
68098;DHT22;54886;47.036;15.466;2023-05-10T03:55:48;9.59;73.28
68098;DHT22;54886;47.036;15.466;2023-05-10T03:58:13;10.30;70.34
68098;DHT22;54886;47.036;15.466;2023-05-10T04:00:39;10.86;68.55
68098;DHT22;54886;47.036;15.466;2023-05-10T04:03:09;11.48;65.23
68098;DHT22;54886;47.036;15.466;2023-05-10T04:05:35;12.06;63.36
68098;DHT22;54886;47.036;15.466;2023-05-10T04:08:00;12.52;61.27
68098;DHT22;54886;47.036;15.466;2023-05-10T04:10:25;12.48;62.04
68098;DHT22;54886;47.036;15.466;2023-05-10T04:12:51;11.49;65.46
68098;DHT22;54886;47.036;15.466;2023-05-10T04:15:16;10.45;69.44
68098;DHT22;54886;47.036;15.466;2023-05-10T04:17:42;10.13;70.33
68098;DHT22;54886;47.036;15.466;2023-05-10T04:20:07;9.93;71.57
68098;DHT22;54886;47.036;15.466;2023-05-10T04:22:34;9.66;73.29
68098;DHT22;54886;47.036;15.466;2023-05-10T04:24:59;9.55;74.20
68098;DHT22;54886;47.036;15.466;2023-05-10T04:27:25;9.49;73.55
68098;DHT22;54886;47.036;15.466;2023-05-10T04:29:50;9.42;73.89
68098;DHT22;54886;47.036;15.466;2023-05-10T04:32:16;9.42;74.33
68098;DHT22;54886;47.036;15.466;2023-05-10T04:34:43;9.41;75.44
68098;DHT22;54886;47.036;15.466;2023-05-10T04:37:08;9.41;74.83
68098;DHT22;54886;47.036;15.466;2023-05-10T04:39:33;9.35;76.76
68098;DHT22;54886;47.036;15.466;2023-05-10T04:42:00;9.41;75.44
68098;DHT22;54886;47.036;15.466;2023-05-10T04:44:25;9.42;76.78
68098;DHT22;54886;47.036;15.466;2023-05-10T04:46:51;9.48;76.19
68098;DHT22;54886;47.036;15.466;2023-05-10T04:49:16;9.52;75.40
68098;DHT22;54886;47.036;15.466;2023-05-10T04:51:42;9.52;75.37
68098;DHT22;54886;47.036;15.466;2023-05-10T04:54:08;9.51;75.97
68098;DHT22;54886;47.036;15.466;2023-05-10T04:56:33;9.49;75.45
68098;DHT22;54886;47.036;15.466;2023-05-10T04:58:59;9.49;75.09
68098;DHT22;54886;47.036;15.466;2023-05-10T05:01:24;9.46;75.05
68098;DHT22;54886;47.036;15.466;2023-05-10T05:03:49;9.46;75.36
68098;DHT22;54886;47.036;15.466;2023-05-10T05:06:15;9.41;75.25
68098;DHT22;54886;47.036;15.466;2023-05-10T05:08:41;9.38;75.93
68098;DHT22;54886;47.036;15.466;2023-05-10T05:11:06;9.35;75.59
68098;DHT22;54886;47.036;15.466;2023-05-10T05:13:31;9.35;74.82
68098;DHT22;54886;47.036;15.466;2023-05-10T05:15:57;9.35;76.90
68098;DHT22;54886;47.036;15.466;2023-05-10T05:18:22;9.31;78.63
68098;DHT22;54886;47.036;15.466;2023-05-10T05:20:48;9.31;79.49
68098;DHT22;54886;47.036;15.466;2023-05-10T05:23:13;9.35;75.98
68098;DHT22;54886;47.036;15.466;2023-05-10T05:25:39;9.38;76.61
68098;DHT22;54886;47.036;15.466;2023-05-10T05:28:04;9.38;76.74
68098;DHT22;54886;47.036;15.466;2023-05-10T05:30:29;9.41;76.70
68098;DHT22;54886;47.036;15.466;2023-05-10T05:32:55;9.42;75.95
68098;DHT22;54886;47.036;15.466;2023-05-10T05:35:20;9.45;75.29
68098;DHT22;54886;47.036;15.466;2023-05-10T05:37:46;9.49;76.72
68098;DHT22;54886;47.036;15.466;2023-05-10T05:40:14;9.52;76.66
68098;DHT22;54886;47.036;15.466;2023-05-10T05:42:40;9.55;76.50
68098;DHT22;54886;47.036;15.466;2023-05-10T05:45:06;9.58;78.66
68098;DHT22;54886;47.036;15.466;2023-05-10T05:47:31;9.62;76.69
68098;DHT22;54886;47.036;15.466;2023-05-10T05:49:57;9.68;78.64
68098;DHT22;54886;47.036;15.466;2023-05-10T05:52:22;9.66;80.00
68098;DHT22;54886;47.036;15.466;2023-05-10T05:54:47;9.72;79.78
68098;DHT22;54886;47.036;15.466;2023-05-10T05:57:13;9.77;78.76
68098;DHT22;54886;47.036;15.466;2023-05-10T05:59:38;9.80;75.34
68098;DHT22;54886;47.036;15.466;2023-05-10T06:02:08;9.86;74.29
68098;DHT22;54886;47.036;15.466;2023-05-10T06:04:33;9.90;76.54
68098;DHT22;54886;47.036;15.466;2023-05-10T06:06:58;9.96;76.65
68098;DHT22;54886;47.036;15.466;2023-05-10T06:09:24;9.98;78.20
68098;DHT22;54886;47.036;15.466;2023-05-10T06:11:49;10.01;76.24
68098;DHT22;54886;47.036;15.466;2023-05-10T06:14:15;10.08;77.28
68098;DHT22;54886;47.036;15.466;2023-05-10T06:16:40;10.11;75.99
68098;DHT22;54886;47.036;15.466;2023-05-10T06:19:05;10.13;74.38
68098;DHT22;54886;47.036;15.466;2023-05-10T06:21:31;10.15;76.28
68098;DHT22;54886;47.036;15.466;2023-05-10T06:23:56;10.21;76.83
68098;DHT22;54886;47.036;15.466;2023-05-10T06:26:22;10.24;78.11
68098;DHT22;54886;47.036;15.466;2023-05-10T06:28:47;10.25;76.44
68098;DHT22;54886;47.036;15.466;2023-05-10T06:31:12;10.34;77.46
68098;DHT22;54886;47.036;15.466;2023-05-10T06:33:38;10.40;79.45
68098;DHT22;54886;47.036;15.466;2023-05-10T06:36:03;10.44;77.69
68098;DHT22;54886;47.036;15.466;2023-05-10T06:38:29;10.49;79.14
68098;DHT22;54886;47.036;15.466;2023-05-10T06:40:54;10.56;78.62
68098;DHT22;54886;47.036;15.466;2023-05-10T06:43:20;10.63;77.49
68098;DHT22;54886;47.036;15.466;2023-05-10T06:45:45;10.66;77.54
68098;DHT22;54886;47.036;15.466;2023-05-10T06:48:11;10.68;76.94
68098;DHT22;54886;47.036;15.466;2023-05-10T06:50:36;10.77;76.99
68098;DHT22;54886;47.036;15.466;2023-05-10T06:53:01;10.83;76.91
68098;DHT22;54886;47.036;15.466;2023-05-10T06:55:27;10.89;77.01
68098;DHT22;54886;47.036;15.466;2023-05-10T06:57:53;10.93;76.80
68098;DHT22;54886;47.036;15.466;2023-05-10T07:00:19;10.96;75.83
68098;DHT22;54886;47.036;15.466;2023-05-10T07:02:45;11.01;76.61
68098;DHT22;54886;47.036;15.466;2023-05-10T07:05:12;11.06;76.10
68098;DHT22;54886;47.036;15.466;2023-05-10T07:07:37;11.13;75.42
68098;DHT22;54886;47.036;15.466;2023-05-10T07:10:03;11.20;76.08
68098;DHT22;54886;47.036;15.466;2023-05-10T07:12:28;11.27;74.62
68098;DHT22;54886;47.036;15.466;2023-05-10T07:14:54;11.30;74.32
68098;DHT22;54886;47.036;15.466;2023-05-10T07:17:19;11.32;74.02
68098;DHT22;54886;47.036;15.466;2023-05-10T07:19:45;11.36;73.87
68098;DHT22;54886;47.036;15.466;2023-05-10T07:22:10;11.39;74.22
68098;DHT22;54886;47.036;15.466;2023-05-10T07:24:36;11.42;74.31
68098;DHT22;54886;47.036;15.466;2023-05-10T07:27:01;11.48;73.97
68098;DHT22;54886;47.036;15.466;2023-05-10T07:29:26;11.54;74.13
68098;DHT22;54886;47.036;15.466;2023-05-10T07:31:52;11.61;73.30
68098;DHT22;54886;47.036;15.466;2023-05-10T07:34:18;11.65;74.25
68098;DHT22;54886;47.036;15.466;2023-05-10T07:36:43;11.70;74.20
68098;DHT22;54886;47.036;15.466;2023-05-10T07:39:09;11.75;74.33
68098;DHT22;54886;47.036;15.466;2023-05-10T07:41:34;11.82;74.33
68098;DHT22;54886;47.036;15.466;2023-05-10T07:43:59;11.89;74.72
68098;DHT22;54886;47.036;15.466;2023-05-10T07:46:25;11.91;74.24
68098;DHT22;54886;47.036;15.466;2023-05-10T07:48:50;11.97;74.20
68098;DHT22;54886;47.036;15.466;2023-05-10T07:51:16;12.01;74.30
68098;DHT22;54886;47.036;15.466;2023-05-10T07:53:41;12.06;73.17
68098;DHT22;54886;47.036;15.466;2023-05-10T07:56:27;12.10;73.62
68098;DHT22;54886;47.036;15.466;2023-05-10T07:58:55;12.16;73.58
68098;DHT22;54886;47.036;15.466;2023-05-10T08:01:21;12.18;73.02
68098;DHT22;54886;47.036;15.466;2023-05-10T08:03:46;12.23;72.87
68098;DHT22;54886;47.036;15.466;2023-05-10T08:06:12;12.28;73.25
68098;DHT22;54886;47.036;15.466;2023-05-10T08:08:38;12.32;72.97
68098;DHT22;54886;47.036;15.466;2023-05-10T08:11:03;12.37;73.20
68098;DHT22;54886;47.036;15.466;2023-05-10T08:13:29;12.44;73.10
68098;DHT22;54886;47.036;15.466;2023-05-10T08:15:54;12.49;72.76
68098;DHT22;54886;47.036;15.466;2023-05-10T08:18:20;12.51;72.11
68098;DHT22;54886;47.036;15.466;2023-05-10T08:20:45;12.58;72.52
68098;DHT22;54886;47.036;15.466;2023-05-10T08:23:12;12.59;72.55
68098;DHT22;54886;47.036;15.466;2023-05-10T08:25:38;12.65;72.09
68098;DHT22;54886;47.036;15.466;2023-05-10T08:28:03;12.70;71.56
68098;DHT22;54886;47.036;15.466;2023-05-10T08:30:29;12.73;72.06
68098;DHT22;54886;47.036;15.466;2023-05-10T08:32:54;12.76;71.92
68098;DHT22;54886;47.036;15.466;2023-05-10T08:35:20;12.85;73.56
68098;DHT22;54886;47.036;15.466;2023-05-10T08:37:46;12.90;72.73
68098;DHT22;54886;47.036;15.466;2023-05-10T08:40:12;12.95;72.56
68098;DHT22;54886;47.036;15.466;2023-05-10T08:42:40;13.00;71.71
68098;DHT22;54886;47.036;15.466;2023-05-10T08:45:07;13.02;71.26
68098;DHT22;54886;47.036;15.466;2023-05-10T08:47:33;13.06;71.10
68098;DHT22;54886;47.036;15.466;2023-05-10T08:49:59;13.11;71.12
68098;DHT22;54886;47.036;15.466;2023-05-10T08:52:26;13.18;71.03
68098;DHT22;54886;47.036;15.466;2023-05-10T08:54:53;13.24;68.40
68098;DHT22;54886;47.036;15.466;2023-05-10T08:57:18;13.28;69.07
68098;DHT22;54886;47.036;15.466;2023-05-10T08:59:44;13.34;69.68
68098;DHT22;54886;47.036;15.466;2023-05-10T09:02:11;13.41;69.85
68098;DHT22;54886;47.036;15.466;2023-05-10T09:04:38;13.49;68.67
68098;DHT22;54886;47.036;15.466;2023-05-10T09:07:03;13.52;67.13
68098;DHT22;54886;47.036;15.466;2023-05-10T09:09:29;13.62;66.88
68098;DHT22;54886;47.036;15.466;2023-05-10T09:11:55;13.66;67.34
68098;DHT22;54886;47.036;15.466;2023-05-10T09:14:21;13.76;67.28
68098;DHT22;54886;47.036;15.466;2023-05-10T09:16:47;13.87;66.34
68098;DHT22;54886;47.036;15.466;2023-05-10T09:19:12;13.96;65.38
68098;DHT22;54886;47.036;15.466;2023-05-10T09:21:38;14.04;65.09
68098;DHT22;54886;47.036;15.466;2023-05-10T09:24:04;14.16;65.83
68098;DHT22;54886;47.036;15.466;2023-05-10T09:26:30;14.32;66.00
68098;DHT22;54886;47.036;15.466;2023-05-10T09:28:57;14.40;66.50
68098;DHT22;54886;47.036;15.466;2023-05-10T09:31:23;14.49;66.01
68098;DHT22;54886;47.036;15.466;2023-05-10T09:33:49;14.57;65.44
68098;DHT22;54886;47.036;15.466;2023-05-10T09:36:15;14.59;67.31
68098;DHT22;54886;47.036;15.466;2023-05-10T09:38:48;14.64;66.46
68098;DHT22;54886;47.036;15.466;2023-05-10T09:41:22;14.64;66.63
68098;DHT22;54886;47.036;15.466;2023-05-10T09:43:48;14.69;66.35
68098;DHT22;54886;47.036;15.466;2023-05-10T09:46:17;14.80;67.38
68098;DHT22;54886;47.036;15.466;2023-05-10T09:48:44;14.92;64.82
68098;DHT22;54886;47.036;15.466;2023-05-10T09:51:10;15.00;64.48
68098;DHT22;54886;47.036;15.466;2023-05-10T09:53:36;15.11;67.70
68098;DHT22;54886;47.036;15.466;2023-05-10T09:56:01;15.23;64.36
68098;DHT22;54886;47.036;15.466;2023-05-10T09:58:26;15.30;64.09
68098;DHT22;54886;47.036;15.466;2023-05-10T10:00:52;15.32;64.15
68098;DHT22;54886;47.036;15.466;2023-05-10T10:03:20;15.32;62.01
68098;DHT22;54886;47.036;15.466;2023-05-10T10:05:47;15.40;62.80
68098;DHT22;54886;47.036;15.466;2023-05-10T10:08:14;15.50;64.95
68098;DHT22;54886;47.036;15.466;2023-05-10T10:10:40;15.57;65.76
68098;DHT22;54886;47.036;15.466;2023-05-10T10:13:06;15.65;65.33
68098;DHT22;54886;47.036;15.466;2023-05-10T10:15:33;15.66;62.44
68098;DHT22;54886;47.036;15.466;2023-05-10T10:17:59;15.69;63.16
68098;DHT22;54886;47.036;15.466;2023-05-10T10:20:26;15.78;61.68
68098;DHT22;54886;47.036;15.466;2023-05-10T10:22:51;15.81;62.09
68098;DHT22;54886;47.036;15.466;2023-05-10T10:25:20;15.93;61.62
68098;DHT22;54886;47.036;15.466;2023-05-10T10:30:32;15.99;61.81
68098;DHT22;54886;47.036;15.466;2023-05-10T10:35:31;16.18;64.08
68098;DHT22;54886;47.036;15.466;2023-05-10T10:37:57;16.21;63.08
68098;DHT22;54886;47.036;15.466;2023-05-10T10:40:30;16.18;60.22
68098;DHT22;54886;47.036;15.466;2023-05-10T10:42:57;16.24;60.43
68098;DHT22;54886;47.036;15.466;2023-05-10T10:45:24;16.23;61.44
68098;DHT22;54886;47.036;15.466;2023-05-10T10:48:21;16.23;60.77
68098;DHT22;54886;47.036;15.466;2023-05-10T10:50:47;16.20;60.66
68098;DHT22;54886;47.036;15.466;2023-05-10T10:53:13;16.23;60.20
68098;DHT22;54886;47.036;15.466;2023-05-10T10:55:46;16.30;61.18
68098;DHT22;54886;47.036;15.466;2023-05-10T10:58:29;16.37;59.67
68098;DHT22;54886;47.036;15.466;2023-05-10T11:01:18;16.40;60.54
68098;DHT22;54886;47.036;15.466;2023-05-10T11:06:32;16.38;60.22
68098;DHT22;54886;47.036;15.466;2023-05-10T11:08:59;16.42;59.48
68098;DHT22;54886;47.036;15.466;2023-05-10T11:11:24;16.44;60.99
68098;DHT22;54886;47.036;15.466;2023-05-10T11:13:51;16.44;60.29
68098;DHT22;54886;47.036;15.466;2023-05-10T11:16:23;16.47;61.22
68098;DHT22;54886;47.036;15.466;2023-05-10T11:19:02;16.45;60.77
68098;DHT22;54886;47.036;15.466;2023-05-10T11:21:32;16.50;60.16
68098;DHT22;54886;47.036;15.466;2023-05-10T11:23:59;16.45;59.50
68098;DHT22;54886;47.036;15.466;2023-05-10T11:26:31;16.41;60.81
68098;DHT22;54886;47.036;15.466;2023-05-10T11:28:57;16.41;60.66
68098;DHT22;54886;47.036;15.466;2023-05-10T11:31:24;16.37;59.47
68098;DHT22;54886;47.036;15.466;2023-05-10T11:33:53;16.41;61.25
68098;DHT22;54886;47.036;15.466;2023-05-10T11:36:33;16.41;60.75
68098;DHT22;54886;47.036;15.466;2023-05-10T11:38:58;16.44;61.43
68098;DHT22;54886;47.036;15.466;2023-05-10T11:41:25;16.42;60.62
68098;DHT22;54886;47.036;15.466;2023-05-10T11:43:52;16.42;61.24
68098;DHT22;54886;47.036;15.466;2023-05-10T11:46:22;16.42;61.02
68098;DHT22;54886;47.036;15.466;2023-05-10T11:48:53;16.42;61.07
68098;DHT22;54886;47.036;15.466;2023-05-10T11:51:23;16.38;59.35
68098;DHT22;54886;47.036;15.466;2023-05-10T11:53:50;16.38;60.70
68098;DHT22;54886;47.036;15.466;2023-05-10T11:56:16;16.37;57.53
68098;DHT22;54886;47.036;15.466;2023-05-10T11:58:41;16.38;58.71
68098;DHT22;54886;47.036;15.466;2023-05-10T12:01:07;16.40;60.81
68098;DHT22;54886;47.036;15.466;2023-05-10T12:03:34;16.41;60.56
68098;DHT22;54886;47.036;15.466;2023-05-10T12:06:01;16.38;58.71
68098;DHT22;54886;47.036;15.466;2023-05-10T12:08:28;16.38;59.51
68098;DHT22;54886;47.036;15.466;2023-05-10T12:11:04;16.37;57.35
68098;DHT22;54886;47.036;15.466;2023-05-10T12:13:30;16.38;58.19
68098;DHT22;54886;47.036;15.466;2023-05-10T12:15:59;16.35;58.58
68098;DHT22;54886;47.036;15.466;2023-05-10T12:18:24;16.37;60.02
68098;DHT22;54886;47.036;15.466;2023-05-10T12:20:53;16.35;58.39
68098;DHT22;54886;47.036;15.466;2023-05-10T12:23:19;16.32;58.97
68098;DHT22;54886;47.036;15.466;2023-05-10T12:25:45;16.32;57.96
68098;DHT22;54886;47.036;15.466;2023-05-10T12:28:11;16.32;59.22
68098;DHT22;54886;47.036;15.466;2023-05-10T12:30:37;16.30;59.41
68098;DHT22;54886;47.036;15.466;2023-05-10T12:33:11;16.31;59.30
68098;DHT22;54886;47.036;15.466;2023-05-10T12:35:54;16.32;58.98
68098;DHT22;54886;47.036;15.466;2023-05-10T12:38:34;16.28;58.42
68098;DHT22;54886;47.036;15.466;2023-05-10T12:41:04;16.31;58.79
68098;DHT22;54886;47.036;15.466;2023-05-10T12:43:30;16.34;58.69
68098;DHT22;54886;47.036;15.466;2023-05-10T12:45:56;16.32;59.63
68098;DHT22;54886;47.036;15.466;2023-05-10T12:48:22;16.31;57.51
68098;DHT22;54886;47.036;15.466;2023-05-10T12:50:47;16.31;59.22
68098;DHT22;54886;47.036;15.466;2023-05-10T12:53:14;16.28;57.76
68098;DHT22;54886;47.036;15.466;2023-05-10T12:55:41;16.28;56.80
68098;DHT22;54886;47.036;15.466;2023-05-10T12:58:06;16.27;57.54
68098;DHT22;54886;47.036;15.466;2023-05-10T13:00:32;16.31;57.23
68098;DHT22;54886;47.036;15.466;2023-05-10T13:02:57;16.34;58.67
68098;DHT22;54886;47.036;15.466;2023-05-10T13:05:22;16.37;58.02
68098;DHT22;54886;47.036;15.466;2023-05-10T13:07:48;16.38;58.81
68098;DHT22;54886;47.036;15.466;2023-05-10T13:10:13;16.42;59.19
68098;DHT22;54886;47.036;15.466;2023-05-10T13:12:39;16.37;59.05
68098;DHT22;54886;47.036;15.466;2023-05-10T13:15:04;16.38;58.68
68098;DHT22;54886;47.036;15.466;2023-05-10T13:17:30;16.38;58.99
68098;DHT22;54886;47.036;15.466;2023-05-10T13:19:56;16.42;58.15
68098;DHT22;54886;47.036;15.466;2023-05-10T13:22:21;16.40;58.73
68098;DHT22;54886;47.036;15.466;2023-05-10T13:24:47;16.40;59.00
68098;DHT22;54886;47.036;15.466;2023-05-10T13:27:12;16.35;60.01
68098;DHT22;54886;47.036;15.466;2023-05-10T13:29:38;16.34;59.06
68098;DHT22;54886;47.036;15.466;2023-05-10T13:32:03;16.32;59.21
68098;DHT22;54886;47.036;15.466;2023-05-10T13:34:29;16.35;58.71
68098;DHT22;54886;47.036;15.466;2023-05-10T13:36:54;16.32;58.97
68098;DHT22;54886;47.036;15.466;2023-05-10T13:39:21;16.31;59.69
68098;DHT22;54886;47.036;15.466;2023-05-10T13:41:47;16.35;59.79
68098;DHT22;54886;47.036;15.466;2023-05-10T13:44:13;16.34;59.18
68098;DHT22;54886;47.036;15.466;2023-05-10T13:46:42;16.40;59.42
68098;DHT22;54886;47.036;15.466;2023-05-10T13:49:09;16.35;58.64
68098;DHT22;54886;47.036;15.466;2023-05-10T13:51:35;16.41;59.32
68098;DHT22;54886;47.036;15.466;2023-05-10T13:54:03;16.44;59.60
68098;DHT22;54886;47.036;15.466;2023-05-10T13:56:29;16.50;59.18
68098;DHT22;54886;47.036;15.466;2023-05-10T13:58:55;16.52;59.58
68098;DHT22;54886;47.036;15.466;2023-05-10T14:01:22;16.55;58.84
68098;DHT22;54886;47.036;15.466;2023-05-10T14:03:47;16.62;59.57
68098;DHT22;54886;47.036;15.466;2023-05-10T14:06:13;16.64;58.12
68098;DHT22;54886;47.036;15.466;2023-05-10T14:08:38;16.67;59.24
68098;DHT22;54886;47.036;15.466;2023-05-10T14:11:04;16.64;56.59
68098;DHT22;54886;47.036;15.466;2023-05-10T14:13:29;16.58;56.64
68098;DHT22;54886;47.036;15.466;2023-05-10T14:15:55;16.58;56.07
68098;DHT22;54886;47.036;15.466;2023-05-10T14:18:20;16.57;57.46
68098;DHT22;54886;47.036;15.466;2023-05-10T14:20:46;16.57;59.08
68098;DHT22;54886;47.036;15.466;2023-05-10T14:23:11;16.58;58.41
68098;DHT22;54886;47.036;15.466;2023-05-10T14:25:39;16.58;58.46
68098;DHT22;54886;47.036;15.466;2023-05-10T14:28:05;16.61;58.73
68098;DHT22;54886;47.036;15.466;2023-05-10T14:30:31;16.65;58.29
68098;DHT22;54886;47.036;15.466;2023-05-10T14:32:57;16.64;59.46
68098;DHT22;54886;47.036;15.466;2023-05-10T14:35:23;16.62;58.63
68098;DHT22;54886;47.036;15.466;2023-05-10T14:37:49;16.68;58.41
68098;DHT22;54886;47.036;15.466;2023-05-10T14:40:14;16.64;58.85
68098;DHT22;54886;47.036;15.466;2023-05-10T14:42:42;16.65;57.82
68098;DHT22;54886;47.036;15.466;2023-05-10T14:45:08;16.65;57.83
68098;DHT22;54886;47.036;15.466;2023-05-10T14:47:33;16.68;57.41
68098;DHT22;54886;47.036;15.466;2023-05-10T14:49:59;16.67;56.87
68098;DHT22;54886;47.036;15.466;2023-05-10T14:52:25;16.68;57.13
68098;DHT22;54886;47.036;15.466;2023-05-10T14:54:50;16.71;56.72
68098;DHT22;54886;47.036;15.466;2023-05-10T14:57:16;16.73;57.11
68098;DHT22;54886;47.036;15.466;2023-05-10T14:59:41;16.78;58.22
68098;DHT22;54886;47.036;15.466;2023-05-10T15:02:07;16.80;58.51
68098;DHT22;54886;47.036;15.466;2023-05-10T15:04:33;16.82;56.95
68098;DHT22;54886;47.036;15.466;2023-05-10T15:06:58;16.82;55.80
68098;DHT22;54886;47.036;15.466;2023-05-10T15:09:24;16.80;55.61
68098;DHT22;54886;47.036;15.466;2023-05-10T15:11:50;16.82;56.65
68098;DHT22;54886;47.036;15.466;2023-05-10T15:14:15;16.83;56.00
68098;DHT22;54886;47.036;15.466;2023-05-10T15:16:41;16.83;55.12
68098;DHT22;54886;47.036;15.466;2023-05-10T15:19:06;16.85;55.87
68098;DHT22;54886;47.036;15.466;2023-05-10T15:21:32;16.87;56.99
68098;DHT22;54886;47.036;15.466;2023-05-10T15:24:06;16.90;55.82
68098;DHT22;54886;47.036;15.466;2023-05-10T15:26:32;16.92;56.34
68098;DHT22;54886;47.036;15.466;2023-05-10T15:28:57;16.93;56.31
68098;DHT22;54886;47.036;15.466;2023-05-10T15:31:23;16.90;56.03
68098;DHT22;54886;47.036;15.466;2023-05-10T15:33:48;16.90;56.13
68098;DHT22;54886;47.036;15.466;2023-05-10T15:36:14;16.90;54.76
68098;DHT22;54886;47.036;15.466;2023-05-10T15:38:39;16.93;56.06